^^
Grace C. Lehan Memorial Weather Station Historical Data
Daily Summary for January 17, 2021 Units:  Metric    English   Both
Daily Weekly Monthly Yearly
  High: Low: Average:
Temperature: 23.6 °C 19.1 °C 20.8 °C
Dew Point: 20.5 °C 17.3 °C 18.7 °C
Humidity: 93% 80.8% 88%
Wind Speed: 3.5km/h 0km/h 0.3km/h
Wind Gust: 11.3km/h - -
Wind- - ENE
Pressure: 1025.3 hPa 1019.5 hPa -
Precipitation: 0 mm    
 
 
Tabular Data for January 17, 2021
Time Temperature Dew Point Pressure Wind Wind Speed Wind Gust Humidity Rainfall Rate (Hourly) solar
00:00 20.1 °C 18.1 °C 1024.6 hPa Calm   11.3 km/h 88% 0 mm 0 W/m2
00:09 20.1 °C 18 °C 1024.3 hPa ENE 0.5 km/h 4.8 km/h 88% 0 mm 0 W/m2
00:14 20 °C 18 °C 1024.3 hPa ENE 0.8 km/h 4.8 km/h 88% 0 mm 0 W/m2
00:19 20 °C 17.9 °C 1024.3 hPa ENE 1 km/h 6.4 km/h 88% 0 mm 0 W/m2
00:24 19.9 °C 17.9 °C 1024.3 hPa ENE 1.6 km/h 8 km/h 88% 0 mm 0 W/m2
00:29 19.9 °C 17.9 °C 1024.3 hPa ENE 0.5 km/h 8 km/h 88% 0 mm 0 W/m2
00:34 19.9 °C 17.9 °C 1024.3 hPa ENE 0.8 km/h 8 km/h 88% 0 mm 0 W/m2
00:39 19.9 °C 17.9 °C 1024.3 hPa ENE 1.1 km/h 6.4 km/h 88% 0 mm 0 W/m2
00:44 19.9 °C 17.9 °C 1024.3 hPa ENE 0.2 km/h 6.4 km/h 88% 0 mm 0 W/m2
00:49 19.9 °C 17.8 °C 1024.3 hPa ENE 0.8 km/h 6.4 km/h 88% 0 mm 0 W/m2
00:54 19.9 °C 17.8 °C 1024.3 hPa ENE 1 km/h 6.4 km/h 88% 0 mm 0 W/m2
00:59 19.9 °C 17.8 °C 1024.3 hPa ENE 1.3 km/h 11.3 km/h 88% 0 mm 0 W/m2
01:04 19.8 °C 17.8 °C 1024.3 hPa ENE 0.2 km/h 11.3 km/h 88% 0 mm 0 W/m2
01:09 19.8 °C 17.8 °C 1024.3 hPa ENE 1 km/h 6.4 km/h 88% 0 mm 0 W/m2
01:14 19.8 °C 17.8 °C 1024.3 hPa ENE 1 km/h 6.4 km/h 88% 0 mm 0 W/m2
01:19 19.8 °C 17.7 °C 1024.3 hPa ENE 1 km/h 6.4 km/h 88% 0 mm 0 W/m2
01:24 19.8 °C 17.7 °C 1024.3 hPa ENE 0.3 km/h 6.4 km/h 88% 0 mm 0 W/m2
01:29 19.8 °C 17.7 °C 1024.3 hPa ENE 1.3 km/h 8 km/h 88% 0 mm 0 W/m2
01:34 19.7 °C 17.7 °C 1024.3 hPa ENE 2.3 km/h 11.3 km/h 88% 0 mm 0 W/m2
01:39 19.7 °C 17.7 °C 1024.3 hPa ENE 0.2 km/h 11.3 km/h 88% 0 mm 0 W/m2
01:44 19.7 °C 17.7 °C 1024.3 hPa ENE 0.2 km/h 11.3 km/h 88% 0 mm 0 W/m2
01:49 19.7 °C 17.7 °C 1023.9 hPa ENE 0.6 km/h 11.3 km/h 88% 0 mm 0 W/m2
01:54 19.7 °C 17.7 °C 1023.9 hPa ENE 1 km/h 11.3 km/h 88% 0 mm 0 W/m2
01:59 19.7 °C 17.7 °C 1023.9 hPa ENE 1 km/h 11.3 km/h 88% 0 mm 0 W/m2
02:04 19.7 °C 17.7 °C 1023.9 hPa ENE 0.3 km/h 11.3 km/h 88% 0 mm 0 W/m2
02:09 19.7 °C 17.8 °C 1023.9 hPa ENE 0.8 km/h 11.3 km/h 88.7% 0 mm 0 W/m2
02:14 19.7 °C 17.9 °C 1023.9 hPa ENE 1.4 km/h 11.3 km/h 89% 0 mm 0 W/m2
02:19 19.7 °C 17.8 °C 1023.9 hPa ENE 3.1 km/h 11.3 km/h 88.9% 0 mm 0 W/m2
02:24 19.7 °C 17.7 °C 1023.9 hPa ENE 1.3 km/h 11.3 km/h 88% 0 mm 0 W/m2
02:29 19.7 °C 17.8 °C 1023.9 hPa ENE 1 km/h 11.3 km/h 88.6% 0 mm 0 W/m2
02:34 19.7 °C 17.8 °C 1023.9 hPa ENE 1.3 km/h 11.3 km/h 89% 0 mm 0 W/m2
02:39 19.7 °C 17.8 °C 1023.9 hPa ENE 0.2 km/h 8 km/h 89% 0 mm 0 W/m2
02:44 19.7 °C 17.8 °C 1023.9 hPa ENE 1.9 km/h 8 km/h 88.8% 0 mm 0 W/m2
02:49 19.6 °C 17.6 °C 1023.9 hPa ENE 1 km/h 8 km/h 88% 0 mm 0 W/m2
02:54 19.6 °C 17.5 °C 1023.9 hPa ENE 2.9 km/h 9.7 km/h 88% 0 mm 0 W/m2
02:59 19.5 °C 17.5 °C 1023.9 hPa ENE 2.7 km/h 9.7 km/h 88% 0 mm 0 W/m2
03:04 19.5 °C 17.4 °C 1023.9 hPa NE 2.4 km/h 11.3 km/h 88% 0 mm 0 W/m2
03:09 19.4 °C 17.4 °C 1023.9 hPa NE 1.3 km/h 11.3 km/h 88% 0 mm 0 W/m2
03:14 19.4 °C 17.4 °C 1023.6 hPa ENE 1.6 km/h 11.3 km/h 88% 0 mm 0 W/m2
03:19 19.4 °C 17.6 °C 1023.6 hPa NE 2.1 km/h 11.3 km/h 88.9% 0 mm 0 W/m2
03:24 19.4 °C 17.4 °C 1023.6 hPa NE 1.3 km/h 11.3 km/h 88.4% 0 mm 0 W/m2
03:29 19.4 °C 17.5 °C 1023.9 hPa NE 0.5 km/h 11.3 km/h 89% 0 mm 0 W/m2
03:34 19.3 °C 17.5 °C 1023.6 hPa NE 0.2 km/h 11.3 km/h 89% 0 mm 0 W/m2
03:39 19.3 °C 17.5 °C 1023.6 hPa Calm   3.2 km/h 89% 0 mm 0 W/m2
03:44 19.3 °C 17.5 °C 1023.9 hPa NE 0.3 km/h 3.2 km/h 89% 0 mm 0 W/m2
03:49 19.3 °C 17.5 °C 1023.6 hPa Calm   3.2 km/h 89% 0 mm 0 W/m2
03:54 19.3 °C 17.4 °C 1023.6 hPa Calm   3.2 km/h 89% 0 mm 0 W/m2
03:59 19.3 °C 17.4 °C 1023.6 hPa NE 0.2 km/h 4.8 km/h 89% 0 mm 0 W/m2
04:00 19.3 °C 17.5 °C 1023.6 hPa Calm   4.8 km/h 89% 0 mm 0 W/m2
04:09 19.3 °C 17.4 °C 1023.9 hPa Calm     89% 0 mm 0 W/m2
04:14 19.3 °C 17.4 °C 1023.9 hPa Calm     89% 0 mm 0 W/m2
04:19 19.3 °C 17.4 °C 1023.9 hPa NE 0.2 km/h 3.2 km/h 89% 0 mm 0 W/m2
04:24 19.3 °C 17.4 °C 1023.9 hPa Calm   3.2 km/h 89% 0 mm 0 W/m2
04:29 19.3 °C 17.4 °C 1023.9 hPa Calm   3.2 km/h 89% 0 mm 0 W/m2
04:34 19.2 °C 17.4 °C 1023.9 hPa Calm   3.2 km/h 89% 0 mm 0 W/m2
04:39 19.2 °C 17.4 °C 1023.9 hPa Calm     89% 0 mm 0 W/m2
04:44 19.2 °C 17.4 °C 1023.9 hPa Calm     89% 0 mm 0 W/m2
04:49 19.2 °C 17.4 °C 1023.9 hPa Calm     89% 0 mm 0 W/m2
04:54 19.2 °C 17.4 °C 1023.9 hPa Calm     89% 0 mm 0 W/m2
04:59 19.2 °C 17.3 °C 1023.9 hPa Calm     89% 0 mm 0 W/m2
05:04 19.2 °C 17.3 °C 1023.9 hPa Calm     89% 0 mm 0 W/m2
05:09 19.2 °C 17.3 °C 1023.9 hPa NE 0.2 km/h 3.2 km/h 89% 0 mm 0 W/m2
05:14 19.2 °C 17.3 °C 1023.9 hPa NE 0.5 km/h 6.4 km/h 89% 0 mm 0 W/m2
05:19 19.2 °C 17.3 °C 1023.9 hPa NE 0.2 km/h 6.4 km/h 89% 0 mm 0 W/m2
05:24 19.2 °C 17.3 °C 1023.9 hPa NE 0.8 km/h 9.7 km/h 89% 0 mm 0 W/m2
05:29 19.2 °C 17.3 °C 1023.9 hPa ENE 1 km/h 9.7 km/h 89% 0 mm 0 W/m2
05:34 19.2 °C 17.3 °C 1024.3 hPa ENE 0.2 km/h 9.7 km/h 89% 0 mm 0 W/m2
05:39 19.2 °C 17.3 °C 1024.3 hPa Calm   4.8 km/h 89% 0 mm 0 W/m2
05:44 19.2 °C 17.3 °C 1024.3 hPa ENE 1.6 km/h 8 km/h 89% 0 mm 0 W/m2
05:49 19.2 °C 17.3 °C 1024.3 hPa ENE 0.6 km/h 8 km/h 89% 0 mm 0 W/m2
05:54 19.1 °C 17.3 °C 1024.3 hPa ENE 0.5 km/h 8 km/h 89% 0 mm 0 W/m2
05:59 19.1 °C 17.3 °C 1024.6 hPa ENE 1.8 km/h 8 km/h 89% 0 mm 0 W/m2
06:04 19.1 °C 17.3 °C 1024.6 hPa ENE 0.3 km/h 8 km/h 89% 0 mm 0 W/m2
06:09 19.1 °C 17.3 °C 1024.6 hPa ENE 1 km/h 8 km/h 89% 0 mm 0 W/m2
06:14 19.1 °C 17.3 °C 1024.6 hPa ENE 1.4 km/h 8 km/h 89% 0 mm 0 W/m2
06:19 19.1 °C 17.3 °C 1024.9 hPa ENE 0.8 km/h 8 km/h 89% 0 mm 0 W/m2
06:30 19.1 °C 17.3 °C 1024.6 hPa Calm   8 km/h 89% 0 mm 0 W/m2
07:00 19.1 °C 17.4 °C 1024.9 hPa Calm   8 km/h 90% 0 mm 0 W/m2
07:30 19.1 °C 17.4 °C 1024.9 hPa Calm   9.7 km/h 90% 0 mm 6 W/m2
08:04 19.2 °C 17.3 °C 1025.3 hPa Calm     89% 0 mm 25 W/m2
08:09 19.2 °C 17.4 °C 1025.3 hPa Calm     89% 0 mm 25 W/m2
08:14 19.3 °C 17.4 °C 1025.3 hPa Calm   1.6 km/h 89% 0 mm 30 W/m2
08:19 19.3 °C 17.4 °C 1025.3 hPa NE 0.2 km/h 3.2 km/h 89.1% 0 mm 44 W/m2
08:24 19.3 °C 17.6 °C 1025.3 hPa NE 0.2 km/h 4.8 km/h 89.4% 0 mm 63 W/m2
08:29 19.4 °C 17.5 °C 1025.3 hPa Calm   4.8 km/h 89% 0 mm 58 W/m2
08:34 19.4 °C 17.6 °C 1025.3 hPa NE 0.5 km/h 6.4 km/h 89% 0 mm 56 W/m2
08:39 19.4 °C 17.6 °C 1025.3 hPa East 0.2 km/h 8 km/h 88.9% 0 mm 42 W/m2
08:44 19.4 °C 17.4 °C 1025.3 hPa Calm   8 km/h 88% 0 mm 28 W/m2
08:49 19.4 °C 17.4 °C 1025.3 hPa ENE 0.5 km/h 8 km/h 88% 0 mm 32 W/m2
08:54 19.4 °C 17.4 °C 1025.3 hPa ENE 0.3 km/h 8 km/h 88.2% 0 mm 39 W/m2
08:59 19.4 °C 17.4 °C 1025.3 hPa ENE 0.6 km/h 8 km/h 88% 0 mm 39 W/m2
09:04 19.4 °C 17.4 °C 1025.3 hPa ENE 0.2 km/h 8 km/h 88% 0 mm 35 W/m2
09:09 19.4 °C 17.4 °C 1025.3 hPa Calm   8 km/h 88.1% 0 mm 40 W/m2
09:14 19.5 °C 17.6 °C 1025.3 hPa Calm   8 km/h 88.4% 0 mm 56 W/m2
09:19 19.5 °C 17.4 °C 1024.9 hPa ENE 0.3 km/h 8 km/h 88% 0 mm 62 W/m2
09:24 19.6 °C 17.6 °C 1024.9 hPa Calm   8 km/h 88.2% 0 mm 62 W/m2
09:29 19.6 °C 17.6 °C 1024.9 hPa ENE 0.3 km/h 8 km/h 88% 0 mm 65 W/m2
09:34 19.6 °C 17.7 °C 1024.9 hPa Calm   8 km/h 88.5% 0 mm 60 W/m2
09:39 19.7 °C 17.6 °C 1024.9 hPa NNW 0.5 km/h 6.4 km/h 88% 0 mm 51 W/m2
09:44 19.7 °C 17.7 °C 1024.9 hPa Calm   6.4 km/h 88% 0 mm 56 W/m2
09:49 19.7 °C 17.6 °C 1024.9 hPa Calm   6.4 km/h 88% 0 mm 56 W/m2
09:54 19.7 °C 17.6 °C 1024.9 hPa North 1 km/h 6.4 km/h 87.6% 0 mm 54 W/m2
09:59 19.7 °C 17.6 °C 1024.9 hPa Calm   6.4 km/h 88% 0 mm 63 W/m2
10:04 19.7 °C 17.7 °C 1024.9 hPa North 0.5 km/h 6.4 km/h 88% 0 mm 86 W/m2
10:09 19.7 °C 17.6 °C 1024.9 hPa Calm   4.8 km/h 88% 0 mm 95 W/m2
10:14 19.7 °C 17.7 °C 1024.6 hPa NNE 0.5 km/h 4.8 km/h 88% 0 mm 91 W/m2
10:19 19.7 °C 17.7 °C 1024.6 hPa NE 1.3 km/h 6.4 km/h 88% 0 mm 88 W/m2
10:24 19.7 °C 17.7 °C 1024.6 hPa NE 1.1 km/h 11.3 km/h 88% 0 mm 91 W/m2
10:29 19.8 °C 17.7 °C 1024.6 hPa NE 0.5 km/h 11.3 km/h 88% 0 mm 121 W/m2
10:34 19.8 °C 17.8 °C 1024.6 hPa ENE 0.5 km/h 11.3 km/h 88% 0 mm 134 W/m2
10:39 19.9 °C 17.9 °C 1024.6 hPa NE 1.1 km/h 11.3 km/h 88% 0 mm 127 W/m2
10:44 20 °C 17.9 °C 1024.6 hPa NNE 0.2 km/h 11.3 km/h 88% 0 mm 127 W/m2
10:49 20.1 °C 18.1 °C 1024.6 hPa NNW 0.6 km/h 11.3 km/h 88% 0 mm 111 W/m2
10:54 20.2 °C 18.1 °C 1024.6 hPa North 0.3 km/h 11.3 km/h 87.8% 0 mm 97 W/m2
10:59 20.2 °C 18.1 °C 1024.6 hPa Calm   11.3 km/h 87.5% 0 mm 100 W/m2
11:04 20.3 °C 18.2 °C 1024.3 hPa Calm   11.3 km/h 87.9% 0 mm 97 W/m2
11:09 20.3 °C 18.1 °C 1024.3 hPa NNE 0.6 km/h 6.4 km/h 87% 0 mm 97 W/m2
11:14 20.3 °C 18.1 °C 1024.6 hPa ENE 1.1 km/h 6.4 km/h 87% 0 mm 127 W/m2
11:19 20.4 °C 18.4 °C 1024.6 hPa NW 0.2 km/h 6.4 km/h 88% 0 mm 142 W/m2
11:24 20.6 °C 18.5 °C 1024.3 hPa NNW 1.3 km/h 8 km/h 87.9% 0 mm 171 W/m2
11:29 20.7 °C 18.4 °C 1024.3 hPa NNE 0.6 km/h 8 km/h 86.9% 0 mm 193 W/m2
11:34 20.8 °C 18.5 °C 1024.3 hPa NNE 0.2 km/h 8 km/h 86.9% 0 mm 200 W/m2
11:39 20.9 °C 18.7 °C 1024.3 hPa NNE 0.6 km/h 6.4 km/h 86.9% 0 mm 192 W/m2
11:44 21 °C 18.6 °C 1024.3 hPa NE 0.8 km/h 8 km/h 86% 0 mm 206 W/m2
11:49 21.2 °C 18.9 °C 1024.3 hPa ENE 3.5 km/h 9.7 km/h 86.7% 0 mm 202 W/m2
11:54 21.3 °C 18.8 °C 1023.9 hPa ENE 0.2 km/h 9.7 km/h 85.8% 0 mm 188 W/m2
11:59 21.4 °C 18.9 °C 1023.9 hPa East 0.3 km/h 9.7 km/h 85.6% 0 mm 172 W/m2
12:09 21.6 °C 18.9 °C 1023.9 hPa Calm     85.2% 0 mm 130 W/m2
12:14 21.6 °C 18.9 °C 1023.9 hPa Calm   3.2 km/h 85% 0 mm 125 W/m2
12:19 21.6 °C 19 °C 1023.9 hPa Calm   3.2 km/h 85% 0 mm 151 W/m2
12:24 21.7 °C 19.2 °C 1024.3 hPa ENE 0.3 km/h 4.8 km/h 85.5% 0 mm 151 W/m2
12:29 21.8 °C 19.1 °C 1024.3 hPa ENE 0.2 km/h 4.8 km/h 84.7% 0 mm 149 W/m2
12:34 21.9 °C 19.3 °C 1023.9 hPa ENE 0.2 km/h 4.8 km/h 85% 0 mm 171 W/m2
12:39 22.1 °C 19.4 °C 1023.9 hPa ENE 0.3 km/h 6.4 km/h 84.9% 0 mm 181 W/m2
12:44 22.1 °C 19.3 °C 1023.9 hPa ENE 0.5 km/h 8 km/h 84% 0 mm 156 W/m2
12:49 22.2 °C 19.3 °C 1023.9 hPa ENE 0.3 km/h 8 km/h 84.1% 0 mm 144 W/m2
12:54 22.2 °C 19.4 °C 1023.9 hPa ENE 1.1 km/h 9.7 km/h 84.3% 0 mm 135 W/m2
12:59 22.3 °C 19.4 °C 1023.6 hPa Calm   9.7 km/h 84% 0 mm 163 W/m2
13:04 22.3 °C 19.4 °C 1023.6 hPa Calm   9.7 km/h 83.8% 0 mm 135 W/m2
13:09 22.3 °C 19.4 °C 1023.6 hPa ENE 0.2 km/h 6.4 km/h 84% 0 mm 120 W/m2
13:14 22.3 °C 19.5 °C 1023.6 hPa Calm   6.4 km/h 84% 0 mm 120 W/m2
13:19 22.3 °C 19.4 °C 1023.6 hPa ENE 0.8 km/h 6.4 km/h 83.7% 0 mm 142 W/m2
13:24 22.3 °C 19.4 °C 1023.6 hPa ENE 1.3 km/h 9.7 km/h 83.8% 0 mm 287 W/m2
13:29 22.4 °C 19.6 °C 1023.6 hPa Calm   9.7 km/h 84% 0 mm 313 W/m2
13:34 22.5 °C 19.7 °C 1023.2 hPa Calm   9.7 km/h 84.2% 0 mm 197 W/m2
13:39 22.7 °C 19.8 °C 1023.2 hPa Calm     83.8% 0 mm 156 W/m2
13:44 22.8 °C 19.9 °C 1023.2 hPa ENE 0.2 km/h 3.2 km/h 84% 0 mm 146 W/m2
13:49 22.8 °C 19.8 °C 1023.2 hPa NNE 1.8 km/h 9.7 km/h 83.2% 0 mm 171 W/m2
13:54 22.8 °C 19.8 °C 1022.9 hPa Calm   9.7 km/h 83.3% 0 mm 193 W/m2
13:59 22.8 °C 19.7 °C 1022.9 hPa Calm   9.7 km/h 82.5% 0 mm 185 W/m2
14:04 22.8 °C 19.8 °C 1022.9 hPa NE 0.6 km/h 9.7 km/h 83% 0 mm 149 W/m2
14:09 22.8 °C 19.8 °C 1022.9 hPa WNW 1.1 km/h 9.7 km/h 83% 0 mm 120 W/m2
14:14 22.8 °C 19.8 °C 1022.6 hPa WNW 0.2 km/h 9.7 km/h 83% 0 mm 121 W/m2
14:19 22.9 °C 19.8 °C 1022.6 hPa WNW 0.2 km/h 9.7 km/h 83% 0 mm 172 W/m2
14:24 22.9 °C 19.8 °C 1022.6 hPa Calm   9.7 km/h 82.6% 0 mm 200 W/m2
14:29 22.9 °C 19.9 °C 1022.2 hPa NNE 0.2 km/h 9.7 km/h 83.1% 0 mm 214 W/m2
14:34 23.1 °C 20.1 °C 1022.2 hPa NE 0.3 km/h 9.7 km/h 83.3% 0 mm 193 W/m2
14:39 23.2 °C 20.1 °C 1022.2 hPa Calm   4.8 km/h 83% 0 mm 178 W/m2
14:44 23.3 °C 20.1 °C 1022.2 hPa NE 0.2 km/h 6.4 km/h 82.5% 0 mm 193 W/m2
14:49 23.4 °C 20.2 °C 1022.2 hPa Calm   6.4 km/h 82.5% 0 mm 197 W/m2
14:54 23.5 °C 20.4 °C 1022.2 hPa NNE 0.3 km/h 6.4 km/h 82.7% 0 mm 156 W/m2
14:59 23.6 °C 20.2 °C 1022.2 hPa ENE 0.5 km/h 6.4 km/h 81.3% 0 mm 141 W/m2
15:04 23.5 °C 20 °C 1022.2 hPa Calm   6.4 km/h 80.8% 0 mm 128 W/m2
15:09 23.5 °C 20.2 °C 1022.2 hPa NE 0.2 km/h 4.8 km/h 81.8% 0 mm 174 W/m2
15:14 23.5 °C 20.2 °C 1022.2 hPa NNE 0.2 km/h 4.8 km/h 81.9% 0 mm 172 W/m2
15:19 23.6 °C 20.3 °C 1022.2 hPa NNE 0.5 km/h 6.4 km/h 82.1% 0 mm 146 W/m2
15:24 23.6 °C 20.3 °C 1022.2 hPa NE 0.2 km/h 6.4 km/h 82% 0 mm 130 W/m2
15:29 23.6 °C 20.3 °C 1021.9 hPa NNE 0.5 km/h 8 km/h 81.6% 0 mm 97 W/m2
15:34 23.6 °C 20.1 °C 1022.2 hPa East 1.3 km/h 8 km/h 81.1% 0 mm 74 W/m2
15:39 23.5 °C 20.2 °C 1022.2 hPa Calm   4.8 km/h 81.9% 0 mm 77 W/m2
15:44 23.4 °C 20.2 °C 1022.2 hPa East 0.5 km/h 4.8 km/h 82% 0 mm 74 W/m2
15:49 23.4 °C 20.3 °C 1021.9 hPa ENE 0.3 km/h 4.8 km/h 82.3% 0 mm 79 W/m2
15:54 23.4 °C 20.3 °C 1021.9 hPa ENE 0.8 km/h 8 km/h 82.6% 0 mm 69 W/m2
15:59 23.3 °C 20.1 °C 1021.9 hPa ENE 1.3 km/h 8 km/h 82% 0 mm 58 W/m2
16:00 23.3 °C 20.1 °C 1021.9 hPa Calm   8 km/h 82% 0 mm 51 W/m2
16:09 23.3 °C 20.3 °C 1021.9 hPa Calm     83% 0 mm 46 W/m2
16:14 23.3 °C 20.3 °C 1021.9 hPa ENE 0.2 km/h 1.6 km/h 83.3% 0 mm 47 W/m2
16:19 23.3 °C 20.2 °C 1021.9 hPa ENE 0.2 km/h 3.2 km/h 83.1% 0 mm 51 W/m2
16:24 23.2 °C 20.2 °C 1021.9 hPa ENE 0.3 km/h 4.8 km/h 83% 0 mm 53 W/m2
16:29 23.2 °C 20.2 °C 1021.9 hPa ENE 0.5 km/h 4.8 km/h 83.3% 0 mm 42 W/m2
16:34 23.2 °C 20.3 °C 1021.9 hPa ENE 0.3 km/h 4.8 km/h 84% 0 mm 42 W/m2
16:39 23.2 °C 20.4 °C 1021.9 hPa ENE 0.2 km/h 4.8 km/h 84.8% 0 mm 33 W/m2
16:44 23.1 °C 20.4 °C 1021.6 hPa ENE 0.6 km/h 6.4 km/h 85% 0 mm 30 W/m2
16:49 22.9 °C 20.4 °C 1021.6 hPa ENE 1 km/h 6.4 km/h 85.6% 0 mm 28 W/m2
16:54 22.8 °C 20.4 °C 1021.6 hPa Calm   6.4 km/h 86% 0 mm 23 W/m2
16:59 22.8 °C 20.5 °C 1021.6 hPa Calm   6.4 km/h 86.9% 0 mm 23 W/m2
17:04 22.7 °C 20.4 °C 1021.6 hPa ENE 1 km/h 8 km/h 87% 0 mm 21 W/m2
17:09 22.6 °C 20.3 °C 1021.2 hPa Calm   8 km/h 87% 0 mm 21 W/m2
17:14 22.6 °C 20.3 °C 1021.2 hPa ENE 0.3 km/h 8 km/h 87.3% 0 mm 19 W/m2
17:19 22.5 °C 20.4 °C 1021.2 hPa Calm   8 km/h 88% 0 mm 18 W/m2
17:24 22.4 °C 20.3 °C 1021.2 hPa North 0.8 km/h 8 km/h 88% 0 mm 12 W/m2
17:29 22.3 °C 20.2 °C 1021.6 hPa Calm   8 km/h 88% 0 mm 7 W/m2
17:34 22.3 °C 20.4 °C 1021.6 hPa Calm   8 km/h 89% 0 mm 11 W/m2
17:39 22.2 °C 20.3 °C 1021.6 hPa Calm     89% 0 mm 11 W/m2
17:44 22.2 °C 20.3 °C 1021.2 hPa NNE 0.2 km/h 3.2 km/h 89% 0 mm 11 W/m2
17:49 22.2 °C 20.3 °C 1021.2 hPa NNE 0.3 km/h 4.8 km/h 89.4% 0 mm 9 W/m2
17:54 22.1 °C 20.2 °C 1021.6 hPa Calm   4.8 km/h 89.1% 0 mm 7 W/m2
17:59 22 °C 20.2 °C 1021.6 hPa Calm   4.8 km/h 89.4% 0 mm 11 W/m2
18:04 21.9 °C 20.2 °C 1021.6 hPa North 0.2 km/h 6.4 km/h 90% 0 mm 11 W/m2
18:09 21.9 °C 20.2 °C 1021.6 hPa Calm   6.4 km/h 90% 0 mm 5 W/m2
18:14 21.8 °C 20.2 °C 1021.2 hPa Calm   6.4 km/h 90% 0 mm 0 W/m2
18:19 21.8 °C 20.2 °C 1021.2 hPa Calm   6.4 km/h 90.5% 0 mm 7 W/m2
18:24 21.7 °C 20.2 °C 1021.2 hPa North 0.2 km/h 6.4 km/h 91% 0 mm 9 W/m2
18:29 21.6 °C 20.1 °C 1021.2 hPa NNE 0.8 km/h 6.4 km/h 91% 0 mm 9 W/m2
18:34 21.6 °C 20 °C 1021.2 hPa North 0.8 km/h 11.3 km/h 91% 0 mm 9 W/m2
18:39 21.4 °C 20 °C 1021.2 hPa Calm   11.3 km/h 91.6% 0 mm 9 W/m2
18:44 21.4 °C 20 °C 1020.9 hPa Calm   11.3 km/h 92% 0 mm 5 W/m2
18:49 21.3 °C 20 °C 1020.9 hPa Calm   11.3 km/h 92% 0 mm 0 W/m2
18:54 21.3 °C 19.9 °C 1020.9 hPa Calm   11.3 km/h 92% 0 mm 0 W/m2
18:59 21.2 °C 19.9 °C 1020.9 hPa Calm   11.3 km/h 92% 0 mm 0 W/m2
19:04 21.2 °C 19.8 °C 1020.9 hPa Calm   11.3 km/h 92% 0 mm 0 W/m2
19:09 21.2 °C 19.8 °C 1020.9 hPa Calm     92.2% 0 mm 0 W/m2
19:14 21.1 °C 19.9 °C 1020.9 hPa Calm     93% 0 mm 0 W/m2
19:19 21.1 °C 19.8 °C 1020.9 hPa North 0.2 km/h 4.8 km/h 92.7% 0 mm 0 W/m2
19:24 21 °C 19.8 °C 1020.9 hPa Calm   4.8 km/h 93% 0 mm 0 W/m2
19:29 21 °C 19.8 °C 1020.9 hPa North 0.2 km/h 4.8 km/h 93% 0 mm 0 W/m2
19:34 21 °C 19.8 °C 1020.9 hPa Calm   4.8 km/h 93% 0 mm 0 W/m2
19:39 21 °C 19.8 °C 1020.9 hPa Calm   3.2 km/h 93% 0 mm 0 W/m2
19:44 20.9 °C 19.8 °C 1020.9 hPa Calm   3.2 km/h 93% 0 mm 0 W/m2
19:49 20.9 °C 19.8 °C 1020.9 hPa Calm   3.2 km/h 93% 0 mm 0 W/m2
19:54 20.9 °C 19.7 °C 1020.9 hPa Calm   3.2 km/h 93% 0 mm 0 W/m2
19:59 20.8 °C 19.7 °C 1020.9 hPa Calm   3.2 km/h 93% 0 mm 0 W/m2
20:09 20.8 °C 19.7 °C 1020.9 hPa North 0.6 km/h 8 km/h 93% 0 mm 0 W/m2
20:14 20.8 °C 19.7 °C 1020.9 hPa Calm   8 km/h 93% 0 mm 0 W/m2
20:19 20.8 °C 19.6 °C 1020.9 hPa Calm   8 km/h 93% 0 mm 0 W/m2
20:24 20.8 °C 19.5 °C 1020.9 hPa Calm   8 km/h 92.3% 0 mm 0 W/m2
20:29 20.8 °C 19.4 °C 1020.9 hPa Calm   8 km/h 92% 0 mm 0 W/m2
20:34 20.8 °C 19.4 °C 1020.9 hPa Calm   8 km/h 92% 0 mm 0 W/m2
20:39 20.8 °C 19.4 °C 1020.9 hPa Calm   3.2 km/h 92% 0 mm 0 W/m2
20:44 20.8 °C 19.4 °C 1020.9 hPa North 0.2 km/h 6.4 km/h 92% 0 mm 0 W/m2
20:49 20.7 °C 19.3 °C 1020.9 hPa Calm   6.4 km/h 92% 0 mm 0 W/m2
20:54 20.7 °C 19.3 °C 1020.9 hPa Calm   6.4 km/h 92% 0 mm 0 W/m2
20:59 20.6 °C 19.3 °C 1020.9 hPa Calm   6.4 km/h 92% 0 mm 0 W/m2
21:04 20.6 °C 19.2 °C 1020.9 hPa Calm   6.4 km/h 92% 0 mm 0 W/m2
21:09 20.6 °C 19.2 °C 1020.9 hPa Calm     92% 0 mm 0 W/m2
21:14 20.6 °C 19.2 °C 1020.9 hPa Calm     92% 0 mm 0 W/m2
21:19 20.6 °C 19.3 °C 1020.9 hPa Calm     92.6% 0 mm 0 W/m2
21:24 20.6 °C 19.4 °C 1020.9 hPa Calm     93% 0 mm 0 W/m2
21:29 20.6 °C 19.4 °C 1020.9 hPa Calm     93% 0 mm 0 W/m2
21:34 20.6 °C 19.4 °C 1020.9 hPa Calm     93% 0 mm 0 W/m2
21:39 20.6 °C 19.4 °C 1020.9 hPa Calm     93% 0 mm 0 W/m2
21:44 20.6 °C 19.4 °C 1020.9 hPa Calm     93% 0 mm 0 W/m2
21:49 20.6 °C 19.4 °C 1020.9 hPa Calm     93% 0 mm 0 W/m2
21:54 20.6 °C 19.4 °C 1020.9 hPa Calm     93% 0 mm 0 W/m2
21:59 20.6 °C 19.4 °C 1020.9 hPa Calm     93% 0 mm 0 W/m2
22:04 20.6 °C 19.4 °C 1020.9 hPa Calm     93% 0 mm 0 W/m2
22:09 20.6 °C 19.4 °C 1020.9 hPa Calm     93% 0 mm 0 W/m2
22:14 20.6 °C 19.4 °C 1020.5 hPa Calm     93% 0 mm 0 W/m2
22:19 20.6 °C 19.4 °C 1020.5 hPa Calm     93% 0 mm 0 W/m2
22:24 20.6 °C 19.3 °C 1020.5 hPa Calm     92.7% 0 mm 0 W/m2
22:29 20.5 °C 19.2 °C 1020.5 hPa Calm     92% 0 mm 0 W/m2
22:34 20.5 °C 19.2 °C 1020.2 hPa Calm     92% 0 mm 0 W/m2
22:39 20.5 °C 19.1 °C 1020.2 hPa Calm     92% 0 mm 0 W/m2
22:44 20.4 °C 19.1 °C 1020.2 hPa Calm     92% 0 mm 0 W/m2
22:49 20.4 °C 19.1 °C 1020.2 hPa Calm     92% 0 mm 0 W/m2
22:54 20.4 °C 19.1 °C 1020.2 hPa NNE 0.5 km/h 6.4 km/h 92% 0 mm 0 W/m2
22:59 20.4 °C 19.1 °C 1020.2 hPa Calm   6.4 km/h 92% 0 mm 0 W/m2
23:04 20.4 °C 19 °C 1019.9 hPa Calm   6.4 km/h 92% 0 mm 0 W/m2
23:09 20.3 °C 19 °C 1019.9 hPa NNE 0.2 km/h 6.4 km/h 92% 0 mm 0 W/m2
23:14 20.3 °C 19 °C 1019.9 hPa Calm   6.4 km/h 92% 0 mm 0 W/m2
23:19 20.3 °C 19 °C 1019.9 hPa Calm   6.4 km/h 92% 0 mm 0 W/m2
23:24 20.3 °C 18.9 °C 1019.5 hPa Calm   6.4 km/h 92% 0 mm 0 W/m2
23:29 20.3 °C 18.9 °C 1019.5 hPa NNE 0.5 km/h 6.4 km/h 92% 0 mm 0 W/m2
23:34 20.3 °C 18.9 °C 1019.5 hPa NE 1.9 km/h 9.7 km/h 92% 0 mm 0 W/m2
23:39 20.2 °C 18.9 °C 1019.5 hPa NE 0.5 km/h 9.7 km/h 92% 0 mm 0 W/m2
23:44 20.2 °C 18.8 °C 1019.5 hPa Calm   9.7 km/h 92% 0 mm 0 W/m2
23:49 20.2 °C 18.8 °C 1019.5 hPa Calm   9.7 km/h 92% 0 mm 0 W/m2
23:54 20.1 °C 18.8 °C 1019.5 hPa Calm   9.7 km/h 92% 0 mm 0 W/m2
23:59 20.1 °C 18.7 °C 1019.5 hPa Calm   9.7 km/h 92% 0 mm 0 W/m2
Hartford County Weather
Compliments of Weather Underground - 4 mb